createdAt,value
2022-10-24T00:00:01.826Z,26.77
2022-10-24T00:00:15.903Z,26.58
2022-10-24T00:00:48.839Z,25.85
2022-10-24T00:01:21.782Z,26.02
2022-10-24T00:01:34.622Z,26.15
2022-10-24T00:01:47.249Z,26.02
2022-10-24T00:01:59.852Z,25.77
2022-10-24T00:02:12.455Z,26.05
2022-10-24T00:02:25.283Z,26.35
2022-10-24T00:02:37.934Z,26.23
2022-10-24T00:02:51.647Z,26.10
2022-10-24T00:03:04.333Z,26.30
2022-10-24T00:03:16.963Z,25.58
2022-10-24T00:03:29.645Z,25.75
2022-10-24T00:03:42.718Z,25.98
2022-10-24T00:03:56.400Z,27.13
2022-10-24T00:04:09.101Z,28.17
2022-10-24T00:04:21.704Z,27.95
2022-10-24T00:04:37.321Z,28.30
2022-10-24T00:04:50.319Z,27.80
2022-10-24T00:05:03.541Z,27.17
2022-10-24T00:05:16.149Z,28.25
2022-10-24T00:05:29.790Z,28.02
2022-10-24T00:05:43.605Z,26.42
2022-10-24T00:05:56.450Z,26.95
2022-10-24T00:06:11.714Z,26.77
2022-10-24T00:06:24.322Z,26.90
2022-10-24T00:06:40.989Z,27.23
2022-10-24T00:06:53.700Z,27.25
2022-10-24T00:07:07.211Z,27.42
2022-10-24T00:07:19.793Z,27.88
2022-10-24T00:07:32.384Z,27.70
2022-10-24T00:07:45.179Z,27.38
2022-10-24T00:07:58.053Z,27.17
2022-10-24T00:08:12.036Z,27.20
2022-10-24T00:08:24.658Z,27.15
2022-10-24T00:08:38.208Z,26.90
2022-10-24T00:08:51.127Z,26.38
2022-10-24T00:09:04.430Z,26.83
2022-10-24T00:09:17.011Z,27.45
2022-10-24T00:09:29.630Z,27.48
2022-10-24T00:09:42.406Z,27.20
2022-10-24T00:09:55.975Z,27.50
2022-10-24T00:10:12.093Z,27.60
2022-10-24T00:10:24.717Z,28.42
2022-10-24T00:10:37.639Z,27.85
2022-10-24T00:10:50.243Z,27.67
2022-10-24T00:11:02.951Z,27.88
2022-10-24T00:11:18.983Z,27.33
2022-10-24T00:11:31.563Z,26.42
2022-10-24T00:11:44.181Z,26.05
2022-10-24T00:11:56.768Z,26.58
2022-10-24T00:12:09.657Z,26.80
2022-10-24T00:12:36.834Z,29.30
2022-10-24T00:12:49.446Z,30.00
2022-10-24T00:13:02.175Z,28.65
2022-10-24T00:13:16.653Z,27.33
2022-10-24T00:13:29.426Z,27.58
2022-10-24T00:13:43.841Z,28.55
2022-10-24T00:13:57.874Z,28.98
2022-10-24T00:14:10.484Z,28.35
2022-10-24T00:14:23.203Z,27.95
2022-10-24T00:14:36.610Z,28.15
2022-10-24T00:14:49.258Z,28.50
2022-10-24T00:15:01.929Z,28.60
2022-10-24T00:15:16.435Z,28.10
2022-10-24T00:15:29.024Z,27.38
2022-10-24T00:15:45.039Z,26.75
2022-10-24T00:15:57.641Z,27.52
2022-10-24T00:16:11.258Z,28.17
2022-10-24T00:16:24.150Z,28.17
2022-10-24T00:16:37.774Z,27.73
2022-10-24T00:16:50.399Z,26.95
2022-10-24T00:17:03.740Z,27.70
2022-10-24T00:17:16.351Z,28.92
2022-10-24T00:17:28.949Z,28.45
2022-10-24T00:17:41.625Z,28.60
2022-10-24T00:17:54.351Z,28.17
2022-10-24T00:18:06.943Z,28.67
2022-10-24T00:18:20.550Z,29.63
2022-10-24T00:18:33.135Z,29.95
2022-10-24T00:18:46.737Z,29.60
2022-10-24T00:18:59.328Z,29.63
2022-10-24T00:19:11.921Z,29.30
2022-10-24T00:19:24.553Z,29.58
2022-10-24T00:19:38.429Z,29.67
2022-10-24T00:19:54.195Z,29.67
2022-10-24T00:20:08.055Z,29.17
2022-10-24T00:20:20.872Z,29.25
2022-10-24T00:20:33.548Z,28.83
2022-10-24T00:20:46.189Z,29.25
2022-10-24T00:20:58.842Z,29.15
2022-10-24T00:21:12.928Z,28.80
2022-10-24T00:21:25.524Z,29.38
2022-10-24T00:21:39.499Z,29.10
2022-10-24T00:21:52.071Z,29.58
2022-10-24T00:22:05.022Z,29.10
2022-10-24T00:22:17.623Z,29.52
2022-10-24T00:22:30.264Z,29.88
2022-10-24T00:22:44.049Z,30.35
2022-10-24T00:22:56.907Z,30.30
2022-10-24T00:23:09.803Z,30.25
2022-10-24T00:23:22.412Z,30.70
2022-10-24T00:23:35.099Z,30.60
2022-10-24T00:23:47.796Z,29.88
2022-10-24T00:24:01.488Z,29.60
2022-10-24T00:24:14.379Z,29.55
2022-10-24T00:24:27.210Z,29.63
2022-10-24T00:24:39.784Z,30.13
2022-10-24T00:24:52.376Z,30.58
2022-10-24T00:25:06.236Z,29.95
2022-10-24T00:25:19.109Z,29.52
2022-10-24T00:25:32.798Z,29.58
2022-10-24T00:25:45.406Z,30.05
2022-10-24T00:26:01.823Z,30.40
2022-10-24T00:26:16.729Z,29.70
2022-10-24T00:26:30.280Z,29.98
2022-10-24T00:26:43.190Z,30.05
2022-10-24T00:26:56.762Z,29.48
2022-10-24T00:27:09.777Z,28.90
2022-10-24T00:27:22.417Z,28.25
2022-10-24T00:27:35.695Z,29.33
2022-10-24T00:27:48.275Z,29.92
2022-10-24T00:28:00.904Z,30.10
2022-10-24T00:28:13.534Z,29.58
2022-10-24T00:28:27.129Z,29.52
2022-10-24T00:28:40.734Z,29.88
2022-10-24T00:28:53.381Z,29.85
2022-10-24T00:29:06.443Z,30.27
2022-10-24T00:29:19.093Z,30.10
2022-10-24T00:29:31.694Z,30.08
2022-10-24T00:29:45.283Z,29.48
2022-10-24T00:29:57.979Z,29.38
2022-10-24T00:30:11.533Z,28.98
2022-10-24T00:30:24.199Z,29.35
2022-10-24T00:30:36.789Z,29.35
2022-10-24T00:30:51.604Z,29.58
2022-10-24T00:31:06.722Z,29.27
2022-10-24T00:31:20.128Z,28.80
2022-10-24T00:31:32.923Z,28.92
2022-10-24T00:31:45.627Z,29.55
2022-10-24T00:31:58.240Z,29.88
2022-10-24T00:32:11.215Z,29.60
2022-10-24T00:32:23.984Z,29.10
2022-10-24T00:32:37.572Z,29.50
2022-10-24T00:32:50.837Z,30.30
2022-10-24T00:33:03.759Z,30.83
2022-10-24T00:33:16.481Z,31.48
2022-10-24T00:33:29.440Z,31.20
2022-10-24T00:33:43.763Z,30.58
2022-10-24T00:33:57.329Z,30.05
2022-10-24T00:34:11.071Z,29.63
2022-10-24T00:34:24.114Z,29.60
2022-10-24T00:34:37.218Z,29.67
2022-10-24T00:34:49.865Z,29.25
2022-10-24T00:35:02.515Z,29.08
2022-10-24T00:35:15.193Z,28.90
2022-10-24T00:35:27.875Z,29.30
2022-10-24T00:35:42.119Z,30.38
2022-10-24T00:35:55.764Z,31.58
2022-10-24T00:36:11.850Z,30.85
2022-10-24T00:36:25.214Z,29.65
2022-10-24T00:36:39.263Z,29.98
2022-10-24T00:36:51.944Z,30.40
2022-10-24T00:37:04.843Z,29.38
2022-10-24T00:37:17.704Z,29.13
2022-10-24T00:37:31.334Z,30.02
2022-10-24T00:37:44.191Z,30.27
2022-10-24T00:37:57.123Z,29.95
2022-10-24T00:38:09.701Z,30.67
2022-10-24T00:38:22.617Z,30.50
2022-10-24T00:38:35.185Z,29.38
2022-10-24T00:38:48.796Z,29.27
2022-10-24T00:39:01.719Z,30.23
2022-10-24T00:39:15.379Z,30.20
2022-10-24T00:39:28.029Z,29.95
2022-10-24T00:39:40.667Z,30.30
2022-10-24T00:39:53.292Z,30.10
2022-10-24T00:40:07.599Z,29.50
2022-10-24T00:40:21.230Z,29.75
2022-10-24T00:40:33.903Z,30.00
2022-10-24T00:40:47.949Z,30.02
2022-10-24T00:41:00.566Z,29.90
2022-10-24T00:41:15.261Z,29.50
2022-10-24T00:41:30.354Z,29.70
2022-10-24T00:41:43.520Z,30.15
2022-10-24T00:41:58.968Z,30.65
2022-10-24T00:42:12.223Z,30.65
2022-10-24T00:42:24.834Z,29.95
2022-10-24T00:42:37.449Z,29.73
2022-10-24T00:42:50.395Z,29.70
2022-10-24T00:43:03.045Z,29.92
2022-10-24T00:43:16.896Z,29.80
2022-10-24T00:43:29.655Z,29.40
2022-10-24T00:43:43.242Z,28.92
2022-10-24T00:44:20.138Z,29.02
2022-10-24T00:44:37.275Z,29.60
2022-10-24T00:44:52.260Z,30.05
2022-10-24T00:45:39.965Z,30.13
2022-10-24T00:45:55.149Z,30.08
2022-10-24T00:46:08.114Z,29.73
2022-10-24T00:46:22.081Z,29.92
2022-10-24T00:46:34.659Z,29.67
2022-10-24T00:46:53.057Z,29.90
2022-10-24T00:47:10.392Z,30.20
2022-10-24T00:47:24.995Z,30.05
2022-10-24T00:47:37.600Z,29.45
2022-10-24T00:47:50.259Z,29.08
2022-10-24T00:48:03.384Z,29.00
2022-10-24T00:48:23.937Z,28.65
2022-10-24T00:48:40.302Z,29.40
2022-10-24T00:48:54.788Z,29.15
2022-10-24T00:49:14.943Z,29.48
2022-10-24T00:49:31.165Z,29.95
2022-10-24T00:49:48.243Z,29.17
2022-10-24T00:50:11.778Z,29.55
2022-10-24T00:50:24.551Z,29.33
2022-10-24T00:50:37.159Z,29.30
2022-10-24T00:50:52.713Z,30.20
2022-10-24T00:51:11.118Z,30.42
2022-10-24T00:51:27.264Z,30.05
2022-10-24T00:51:42.188Z,29.92
2022-10-24T00:51:59.987Z,30.02
2022-10-24T00:52:15.315Z,30.13
2022-10-24T00:52:33.326Z,29.92
2022-10-24T00:52:47.937Z,28.77
2022-10-24T00:53:00.671Z,29.35
2022-10-24T00:53:17.283Z,29.70
2022-10-24T00:53:32.990Z,28.77
2022-10-24T00:53:49.912Z,27.95
2022-10-24T00:54:06.515Z,29.25
2022-10-24T00:54:19.856Z,28.92
2022-10-24T00:54:34.017Z,28.92
2022-10-24T00:54:47.729Z,29.42
2022-10-24T00:55:01.660Z,29.60
2022-10-24T00:55:15.567Z,29.58
2022-10-24T00:55:29.172Z,29.05
2022-10-24T00:55:43.341Z,29.15
2022-10-24T00:55:59.322Z,29.15
2022-10-24T00:56:13.383Z,29.20
2022-10-24T00:56:29.742Z,29.15
2022-10-24T00:56:47.624Z,28.50
2022-10-24T00:57:06.447Z,28.27
2022-10-24T00:57:23.171Z,28.15
2022-10-24T00:57:41.499Z,28.38
2022-10-24T00:57:56.855Z,28.25
2022-10-24T00:58:11.153Z,28.00
2022-10-24T00:58:27.954Z,28.35
2022-10-24T00:58:42.996Z,28.65
2022-10-24T00:58:59.675Z,27.95
2022-10-24T00:59:14.578Z,28.33
2022-10-24T00:59:29.711Z,28.42
2022-10-24T00:59:45.467Z,27.95
2022-10-24T01:00:02.201Z,28.63
2022-10-24T01:00:19.322Z,28.60
2022-10-24T01:00:34.012Z,28.73
2022-10-24T01:00:47.813Z,29.38
2022-10-24T01:01:01.544Z,28.58
2022-10-24T01:01:14.855Z,28.25
2022-10-24T01:01:27.836Z,28.45
2022-10-24T01:01:43.871Z,28.40
2022-10-24T01:01:56.868Z,27.95
2022-10-24T01:02:10.744Z,28.13
2022-10-24T01:02:24.198Z,28.40
2022-10-24T01:02:37.179Z,27.50
2022-10-24T01:02:50.028Z,27.48
2022-10-24T01:03:03.534Z,28.00
2022-10-24T01:03:16.296Z,28.27
2022-10-24T01:03:29.994Z,27.85
2022-10-24T01:03:42.679Z,27.63
2022-10-24T01:03:55.286Z,27.73
2022-10-24T01:04:10.510Z,28.25
2022-10-24T01:04:23.111Z,28.30
2022-10-24T01:04:35.689Z,28.02
2022-10-24T01:04:48.904Z,28.15
2022-10-24T01:05:03.270Z,28.30
2022-10-24T01:05:17.246Z,27.75
2022-10-24T01:05:37.067Z,28.17
2022-10-24T01:06:05.719Z,28.90
2022-10-24T01:06:30.108Z,28.48
2022-10-24T01:07:01.588Z,29.48
2022-10-24T01:07:24.648Z,28.17
2022-10-24T01:07:50.843Z,26.25
2022-10-24T01:08:13.272Z,27.23
2022-10-24T01:08:33.559Z,27.45
2022-10-24T01:08:51.162Z,27.98
2022-10-24T01:09:16.138Z,27.65
2022-10-24T01:09:46.773Z,27.67
2022-10-24T01:10:21.468Z,27.63
2022-10-24T01:10:43.396Z,26.67
2022-10-24T01:11:10.334Z,26.95
2022-10-24T01:11:34.801Z,26.63
2022-10-24T01:12:03.061Z,26.27
2022-10-24T01:12:27.800Z,27.38
2022-10-24T01:12:50.825Z,27.27
2022-10-24T01:13:15.934Z,27.15
2022-10-24T01:13:40.053Z,27.77
2022-10-24T01:14:03.054Z,27.17
2022-10-24T01:14:27.530Z,27.65
2022-10-24T01:14:48.997Z,26.65
2022-10-24T01:15:12.906Z,26.63
2022-10-24T01:15:34.168Z,26.48
2022-10-24T01:15:52.156Z,26.88
2022-10-24T01:16:13.334Z,26.40
2022-10-24T01:16:34.536Z,26.27
2022-10-24T01:16:51.356Z,26.80
2022-10-24T01:17:11.613Z,27.33
2022-10-24T01:17:34.735Z,26.67
2022-10-24T01:17:56.389Z,26.40
2022-10-24T01:18:14.152Z,25.88
2022-10-24T01:18:32.618Z,26.23
2022-10-24T01:18:50.209Z,26.00
2022-10-24T01:19:15.347Z,26.05
2022-10-24T01:19:56.799Z,26.08
2022-10-24T01:20:38.334Z,25.92
2022-10-24T01:21:15.893Z,25.80
2022-10-24T01:21:31.820Z,26.05
2022-10-24T01:21:48.838Z,25.58
2022-10-24T01:22:08.171Z,25.30
2022-10-24T01:22:25.868Z,25.00
2022-10-24T01:22:47.209Z,24.92
2022-10-24T01:23:12.752Z,24.83
2022-10-24T01:24:08.408Z,25.13
2022-10-24T01:24:45.610Z,25.52
2022-10-24T01:25:11.621Z,25.05
2022-10-24T01:25:36.012Z,25.05
2022-10-24T01:26:00.488Z,25.27
2022-10-24T01:26:36.516Z,25.40
2022-10-24T01:27:24.903Z,25.10
2022-10-24T01:27:56.021Z,25.63
2022-10-24T01:28:12.146Z,25.20
2022-10-24T01:28:29.543Z,24.80
2022-10-24T01:28:52.670Z,25.30
2022-10-24T01:29:15.633Z,24.67
2022-10-24T01:29:47.506Z,25.20
2022-10-24T01:30:05.507Z,25.50
2022-10-24T01:30:19.645Z,25.73
2022-10-24T01:30:37.888Z,25.75
2022-10-24T01:30:58.154Z,25.85
2022-10-24T01:31:17.458Z,25.00
2022-10-24T01:31:35.727Z,24.52
2022-10-24T01:31:53.629Z,24.48
2022-10-24T01:32:12.032Z,24.75
2022-10-24T01:32:35.685Z,24.88
2022-10-24T01:32:56.061Z,25.17
2022-10-24T01:33:18.880Z,24.55
2022-10-24T01:33:36.961Z,23.92
2022-10-24T01:33:54.015Z,24.67
2022-10-24T01:34:13.267Z,24.98
2022-10-24T01:34:31.044Z,24.33
2022-10-24T01:34:48.108Z,24.27
2022-10-24T01:35:07.712Z,24.00
2022-10-24T01:35:36.171Z,23.55
2022-10-24T01:35:55.114Z,25.55
2022-10-24T01:36:14.137Z,25.85
2022-10-24T01:36:33.666Z,25.35
2022-10-24T01:36:56.585Z,24.15
2022-10-24T01:37:15.057Z,24.20
2022-10-24T01:37:34.206Z,24.25
2022-10-24T01:37:53.232Z,24.27
2022-10-24T01:38:15.042Z,23.95
2022-10-24T01:38:33.810Z,24.83
2022-10-24T01:38:52.666Z,24.73
2022-10-24T01:39:12.382Z,24.23
2022-10-24T01:39:30.315Z,24.83
2022-10-24T01:39:47.957Z,24.30
2022-10-24T01:40:06.806Z,24.17
2022-10-24T01:40:23.913Z,24.50
2022-10-24T01:40:45.282Z,24.73
2022-10-24T01:41:01.132Z,25.17
2022-10-24T01:41:17.298Z,24.90
2022-10-24T01:41:32.734Z,24.77
2022-10-24T01:41:46.906Z,24.77
2022-10-24T01:42:02.340Z,24.95
2022-10-24T01:42:17.811Z,24.80
2022-10-24T01:42:32.586Z,24.70
2022-10-24T01:42:47.562Z,24.73
2022-10-24T01:43:05.880Z,24.83
2022-10-24T01:43:23.341Z,24.83
2022-10-24T01:43:40.123Z,24.67
2022-10-24T01:43:56.761Z,24.83
2022-10-24T01:44:16.278Z,25.13
2022-10-24T01:44:32.451Z,25.20
2022-10-24T01:44:50.987Z,24.80
2022-10-24T01:45:07.083Z,24.98
2022-10-24T01:45:26.266Z,25.38
2022-10-24T01:45:42.080Z,25.15
2022-10-24T01:46:01.314Z,25.90
2022-10-24T01:46:20.547Z,26.33
2022-10-24T01:46:37.491Z,26.20
2022-10-24T01:46:55.242Z,25.65
2022-10-24T01:47:12.400Z,25.52
2022-10-24T01:47:28.809Z,25.33
2022-10-24T01:47:47.571Z,25.00
2022-10-24T01:48:04.131Z,24.80
2022-10-24T01:48:21.785Z,25.48
2022-10-24T01:48:40.440Z,26.33
2022-10-24T01:48:59.112Z,25.92
2022-10-24T01:49:17.260Z,26.25
2022-10-24T01:49:34.140Z,25.77
2022-10-24T01:49:52.586Z,25.27
2022-10-24T01:50:10.186Z,25.52
2022-10-24T01:50:26.351Z,25.75
2022-10-24T01:50:41.856Z,25.70
2022-10-24T01:50:56.499Z,25.65
2022-10-24T01:51:11.567Z,24.98
2022-10-24T01:51:29.575Z,24.77
2022-10-24T01:51:44.038Z,24.27
2022-10-24T01:52:00.569Z,23.88
2022-10-24T01:52:17.742Z,24.48
2022-10-24T01:52:33.452Z,25.77
2022-10-24T01:52:47.640Z,25.83
2022-10-24T01:53:02.238Z,25.67
2022-10-24T01:53:15.365Z,25.98
2022-10-24T01:53:30.313Z,25.63
2022-10-24T01:53:45.147Z,25.13
2022-10-24T01:53:58.545Z,26.23
2022-10-24T01:54:12.743Z,26.65
2022-10-24T01:54:25.847Z,25.83
2022-10-24T01:54:40.184Z,25.10
2022-10-24T01:54:53.186Z,24.73
2022-10-24T01:55:06.957Z,25.45
2022-10-24T01:55:20.636Z,25.13
2022-10-24T01:55:33.676Z,25.50
2022-10-24T01:55:47.370Z,25.55
2022-10-24T01:56:01.052Z,25.52
2022-10-24T01:56:13.776Z,26.65
2022-10-24T01:56:26.956Z,26.95
2022-10-24T01:56:39.595Z,25.75
2022-10-24T01:56:52.252Z,25.33
2022-10-24T01:57:06.010Z,25.73
2022-10-24T01:57:18.583Z,26.02
2022-10-24T01:57:33.393Z,25.55
2022-10-24T01:57:45.994Z,25.65
2022-10-24T01:57:58.886Z,27.13
2022-10-24T01:58:11.687Z,27.63
2022-10-24T01:58:25.323Z,26.90
2022-10-24T01:58:37.960Z,27.10
2022-10-24T01:58:51.222Z,26.85
2022-10-24T01:59:06.359Z,26.23
2022-10-24T01:59:42.238Z,26.08
2022-10-24T01:59:56.331Z,25.77
2022-10-24T02:00:19.203Z,25.20
2022-10-24T02:00:31.910Z,25.40
2022-10-24T02:00:47.460Z,25.75
2022-10-24T02:01:03.977Z,25.95
2022-10-24T02:01:22.243Z,26.65
2022-10-24T02:01:37.313Z,26.83
2022-10-24T02:01:50.604Z,26.70
2022-10-24T02:02:09.535Z,26.15
2022-10-24T02:02:26.372Z,26.20
2022-10-24T02:02:42.588Z,26.00
2022-10-24T02:03:00.552Z,26.83
2022-10-24T02:03:25.013Z,27.08
2022-10-24T02:03:40.828Z,26.45
2022-10-24T02:03:57.090Z,25.73
2022-10-24T02:04:13.002Z,25.85
2022-10-24T02:04:28.003Z,25.65
2022-10-24T02:04:45.677Z,25.63
2022-10-24T02:05:04.291Z,26.90
2022-10-24T02:05:21.558Z,27.40
2022-10-24T02:05:38.615Z,26.77
2022-10-24T02:05:55.318Z,26.30
2022-10-24T02:06:13.852Z,26.23
2022-10-24T02:06:32.224Z,25.75
2022-10-24T02:06:47.192Z,26.35
2022-10-24T02:07:03.419Z,26.77
2022-10-24T02:07:18.720Z,27.67
2022-10-24T02:07:34.121Z,27.20
2022-10-24T02:07:52.547Z,26.30
2022-10-24T02:08:09.085Z,26.30
2022-10-24T02:08:27.644Z,26.08
2022-10-24T02:08:44.492Z,26.75
2022-10-24T02:09:01.559Z,26.38
2022-10-24T02:09:18.635Z,26.48
2022-10-24T02:09:35.332Z,26.52
2022-10-24T02:09:51.615Z,25.88
2022-10-24T02:10:08.480Z,26.85
2022-10-24T02:10:26.272Z,26.85
2022-10-24T02:10:43.403Z,26.85
2022-10-24T02:10:59.304Z,27.10
2022-10-24T02:11:12.617Z,27.02
2022-10-24T02:11:25.573Z,26.92
2022-10-24T02:11:40.686Z,26.80
2022-10-24T02:11:55.045Z,27.20
2022-10-24T02:12:10.426Z,27.17
2022-10-24T02:12:25.945Z,26.67
2022-10-24T02:12:44.085Z,27.02
2022-10-24T02:13:01.992Z,26.25
2022-10-24T02:13:24.177Z,25.77
2022-10-24T02:13:45.176Z,26.23
2022-10-24T02:14:03.905Z,27.17
2022-10-24T02:14:21.023Z,27.17
2022-10-24T02:14:36.545Z,26.95
2022-10-24T02:14:54.048Z,26.85
2022-10-24T02:15:14.926Z,27.13
2022-10-24T02:15:30.295Z,27.58
2022-10-24T02:15:49.743Z,27.90
2022-10-24T02:16:03.372Z,28.35
2022-10-24T02:16:17.969Z,27.38
2022-10-24T02:16:31.901Z,26.58
2022-10-24T02:16:45.237Z,26.92
2022-10-24T02:16:57.831Z,26.83
2022-10-24T02:17:11.190Z,26.17
2022-10-24T02:17:25.487Z,26.35
2022-10-24T02:17:38.529Z,26.60
2022-10-24T02:17:52.292Z,26.08
2022-10-24T02:18:05.360Z,26.48
2022-10-24T02:18:18.549Z,26.55
2022-10-24T02:18:33.809Z,26.10
2022-10-24T02:18:47.670Z,26.13
2022-10-24T02:19:00.797Z,25.85
2022-10-24T02:19:14.413Z,26.15
2022-10-24T02:19:27.630Z,26.58
2022-10-24T02:19:40.318Z,27.17
2022-10-24T02:19:53.732Z,27.45
2022-10-24T02:20:08.916Z,27.48
2022-10-24T02:20:27.497Z,26.95
2022-10-24T02:20:46.333Z,26.50
2022-10-24T02:21:07.075Z,26.08
2022-10-24T02:21:29.362Z,26.70
2022-10-24T02:21:45.620Z,27.55
2022-10-24T02:22:03.852Z,26.88
2022-10-24T02:22:23.724Z,26.58
2022-10-24T02:22:44.936Z,26.95
2022-10-24T02:23:02.451Z,26.58
2022-10-24T02:23:23.622Z,26.60
2022-10-24T02:23:43.456Z,27.27
2022-10-24T02:24:02.267Z,27.30
2022-10-24T02:24:20.068Z,27.10
2022-10-24T02:24:38.025Z,26.73
2022-10-24T02:24:56.082Z,26.95
2022-10-24T02:25:11.515Z,27.27
2022-10-24T02:25:27.752Z,26.80
2022-10-24T02:26:06.151Z,26.80
2022-10-24T02:26:25.504Z,27.48
2022-10-24T02:26:47.147Z,27.42
2022-10-24T02:27:06.784Z,27.38
2022-10-24T02:27:23.948Z,27.27
2022-10-24T02:27:42.864Z,27.95
2022-10-24T02:28:03.213Z,27.52
2022-10-24T02:28:19.082Z,27.20
2022-10-24T02:28:38.871Z,27.23
2022-10-24T02:28:54.798Z,28.20
2022-10-24T02:29:13.087Z,26.85
2022-10-24T02:29:32.469Z,26.98
2022-10-24T02:29:52.595Z,26.60
2022-10-24T02:30:11.119Z,26.63
2022-10-24T02:30:25.829Z,26.73
2022-10-24T02:30:45.596Z,26.33
2022-10-24T02:31:02.758Z,26.05
2022-10-24T02:31:21.564Z,26.23
2022-10-24T02:31:40.144Z,26.88
2022-10-24T02:31:55.493Z,27.55
2022-10-24T02:32:13.082Z,27.83
2022-10-24T02:32:29.083Z,26.90
2022-10-24T02:32:44.711Z,26.60
2022-10-24T02:32:59.709Z,26.67
2022-10-24T02:33:14.947Z,26.95
2022-10-24T02:33:29.624Z,27.27
2022-10-24T02:33:45.909Z,27.85
2022-10-24T02:34:01.346Z,27.42
2022-10-24T02:34:15.679Z,26.77
2022-10-24T02:34:32.127Z,27.10
2022-10-24T02:34:47.109Z,27.20
2022-10-24T02:35:02.680Z,26.67
2022-10-24T02:35:19.413Z,26.85
2022-10-24T02:35:37.856Z,27.05
2022-10-24T02:35:52.673Z,27.45
2022-10-24T02:36:07.794Z,27.95
2022-10-24T02:36:27.699Z,27.35
2022-10-24T02:36:44.441Z,26.45
2022-10-24T02:36:58.526Z,26.90
2022-10-24T02:37:13.230Z,26.98
2022-10-24T02:37:29.147Z,26.65
2022-10-24T02:37:47.517Z,26.75
2022-10-24T02:38:04.996Z,27.20
2022-10-24T02:38:23.141Z,27.58
2022-10-24T02:38:40.391Z,27.30
2022-10-24T02:38:55.748Z,26.83
2022-10-24T02:39:10.559Z,26.92
2022-10-24T02:39:23.768Z,27.38
2022-10-24T02:39:38.304Z,26.80
2022-10-24T02:39:52.438Z,26.60
2022-10-24T02:40:09.017Z,27.23
2022-10-24T02:40:24.083Z,27.17
2022-10-24T02:40:37.939Z,27.05
2022-10-24T02:40:53.064Z,26.90
2022-10-24T02:41:10.208Z,26.63
2022-10-24T02:41:26.053Z,26.65
2022-10-24T02:41:42.943Z,26.33
2022-10-24T02:41:57.666Z,26.65
2022-10-24T02:42:12.797Z,26.75
2022-10-24T02:42:48.014Z,27.27
2022-10-24T02:43:03.158Z,27.00
2022-10-24T02:43:17.978Z,27.58
2022-10-24T02:43:32.761Z,26.92
2022-10-24T02:43:46.877Z,26.13
2022-10-24T02:44:01.517Z,26.58
2022-10-24T02:44:16.992Z,27.20
2022-10-24T02:44:31.261Z,26.98
2022-10-24T02:44:48.115Z,26.50
2022-10-24T02:45:01.585Z,26.23
2022-10-24T02:45:16.570Z,26.15
2022-10-24T02:45:30.370Z,26.40
2022-10-24T02:45:43.405Z,26.75
2022-10-24T02:45:58.460Z,26.45
2022-10-24T02:46:12.440Z,26.17
2022-10-24T02:46:27.080Z,26.65
2022-10-24T02:46:40.840Z,26.38
2022-10-24T02:46:56.093Z,26.33
2022-10-24T02:47:11.906Z,26.83
2022-10-24T02:47:27.168Z,26.52
2022-10-24T02:47:40.942Z,25.83
2022-10-24T02:47:57.907Z,26.25
2022-10-24T02:48:15.565Z,26.33
2022-10-24T02:48:32.162Z,26.10
2022-10-24T02:48:49.865Z,26.63
2022-10-24T02:49:03.588Z,26.50
2022-10-24T02:49:16.582Z,25.60
2022-10-24T02:49:29.253Z,25.15
2022-10-24T02:49:43.836Z,25.90
2022-10-24T02:49:56.539Z,27.17
2022-10-24T02:50:10.104Z,27.45
2022-10-24T02:50:23.066Z,27.10
2022-10-24T02:50:38.064Z,27.52
2022-10-24T02:51:06.634Z,26.95
2022-10-24T02:51:22.445Z,26.92
2022-10-24T02:51:38.240Z,26.40
2022-10-24T02:51:51.880Z,25.55
2022-10-24T02:52:05.429Z,25.73
2022-10-24T02:52:18.075Z,26.48
2022-10-24T02:52:31.783Z,26.10
2022-10-24T02:52:44.905Z,25.98
2022-10-24T02:52:57.912Z,26.40
2022-10-24T02:53:13.937Z,26.73
2022-10-24T02:53:26.749Z,26.42
2022-10-24T02:53:39.694Z,26.40
2022-10-24T02:53:52.644Z,26.75
2022-10-24T02:54:08.278Z,27.00
2022-10-24T02:54:20.966Z,26.88
2022-10-24T02:54:33.609Z,26.98
2022-10-24T02:54:46.738Z,26.20
2022-10-24T02:54:59.584Z,25.88
2022-10-24T02:55:12.322Z,25.67
2022-10-24T02:55:26.158Z,25.90
2022-10-24T02:55:38.905Z,26.27
2022-10-24T02:55:51.611Z,26.55
2022-10-24T02:56:04.432Z,26.13
2022-10-24T02:56:17.132Z,25.52
2022-10-24T02:56:30.693Z,26.08
2022-10-24T02:56:49.588Z,26.50
2022-10-24T02:57:04.975Z,25.50
2022-10-24T02:57:17.790Z,25.17
2022-10-24T02:57:30.380Z,25.73
2022-10-24T02:57:43.094Z,26.30
2022-10-24T02:57:55.674Z,26.15
2022-10-24T02:58:08.292Z,26.48
2022-10-24T02:58:20.914Z,26.73
2022-10-24T02:58:34.540Z,26.88
2022-10-24T02:58:47.285Z,25.88
2022-10-24T02:58:59.886Z,25.83
2022-10-24T02:59:12.514Z,25.73
2022-10-24T02:59:25.226Z,25.98
2022-10-24T02:59:37.802Z,26.35
2022-10-24T02:59:51.351Z,25.60
2022-10-24T03:00:04.603Z,25.65
2022-10-24T03:00:19.150Z,25.83
2022-10-24T03:00:31.942Z,25.77
2022-10-24T03:00:44.631Z,25.83
2022-10-24T03:00:57.303Z,25.50
2022-10-24T03:01:10.167Z,26.55
2022-10-24T03:01:24.226Z,26.50
2022-10-24T03:01:37.064Z,25.73
2022-10-24T03:01:49.767Z,25.30
2022-10-24T03:02:02.394Z,25.15
2022-10-24T03:02:14.976Z,25.88
2022-10-24T03:02:27.577Z,25.63
2022-10-24T03:02:40.174Z,25.77
2022-10-24T03:02:53.744Z,25.35
2022-10-24T03:03:06.520Z,25.05
2022-10-24T03:03:19.099Z,25.15
2022-10-24T03:03:31.672Z,26.08
2022-10-24T03:03:44.564Z,26.65
2022-10-24T03:03:57.179Z,26.90
2022-10-24T03:04:10.232Z,26.02
2022-10-24T03:04:24.642Z,26.02
2022-10-24T03:04:37.212Z,25.98
2022-10-24T03:04:49.987Z,25.92
2022-10-24T03:05:02.622Z,26.48
2022-10-24T03:05:15.254Z,26.83
2022-10-24T03:05:27.812Z,26.23
2022-10-24T03:05:40.461Z,26.13
2022-10-24T03:05:54.202Z,26.13
2022-10-24T03:06:07.371Z,26.17
2022-10-24T03:06:20.086Z,26.13
2022-10-24T03:06:32.940Z,26.42
2022-10-24T03:06:45.689Z,26.50
2022-10-24T03:06:58.332Z,26.45
2022-10-24T03:07:10.956Z,26.83
2022-10-24T03:07:24.577Z,26.75
2022-10-24T03:07:37.243Z,26.35
2022-10-24T03:07:49.830Z,26.48
2022-10-24T03:08:02.425Z,27.10
2022-10-24T03:08:15.172Z,27.42
2022-10-24T03:08:27.756Z,26.55
2022-10-24T03:08:40.496Z,26.48
2022-10-24T03:08:53.086Z,26.23
2022-10-24T03:09:06.669Z,26.45
2022-10-24T03:09:19.316Z,26.60
2022-10-24T03:09:31.908Z,26.30
2022-10-24T03:09:44.473Z,26.00
2022-10-24T03:09:57.226Z,25.92
2022-10-24T03:10:10.046Z,26.15
2022-10-24T03:10:23.639Z,26.65
2022-10-24T03:10:36.426Z,26.85
2022-10-24T03:10:48.990Z,27.33
2022-10-24T03:11:01.583Z,27.63
2022-10-24T03:11:14.186Z,27.08
2022-10-24T03:11:27.002Z,26.88
2022-10-24T03:11:39.620Z,26.55
2022-10-24T03:11:52.337Z,26.90
2022-10-24T03:12:06.229Z,27.30
2022-10-24T03:12:19.628Z,26.73
2022-10-24T03:12:32.196Z,25.98
2022-10-24T03:12:45.101Z,26.13
2022-10-24T03:12:57.853Z,26.70
2022-10-24T03:13:10.401Z,27.33
2022-10-24T03:13:22.971Z,27.40
2022-10-24T03:13:35.569Z,26.95
2022-10-24T03:13:49.515Z,26.23
2022-10-24T03:14:02.271Z,26.17
2022-10-24T03:14:14.883Z,26.25
2022-10-24T03:14:27.522Z,26.38
2022-10-24T03:14:40.075Z,26.05
2022-10-24T03:14:52.616Z,26.17
2022-10-24T03:15:05.955Z,26.65
2022-10-24T03:15:21.230Z,26.90
2022-10-24T03:15:34.079Z,26.02
2022-10-24T03:16:00.266Z,26.88
2022-10-24T03:16:14.145Z,26.20
2022-10-24T03:16:28.649Z,25.85
2022-10-24T03:16:41.247Z,26.48
2022-10-24T03:16:54.836Z,26.83
2022-10-24T03:17:07.411Z,26.90
2022-10-24T03:17:20.039Z,26.75
2022-10-24T03:17:32.720Z,27.15
2022-10-24T03:17:47.775Z,26.55
2022-10-24T03:18:00.467Z,26.95
2022-10-24T03:18:14.080Z,26.92
2022-10-24T03:18:26.689Z,26.77
2022-10-24T03:18:39.282Z,26.92
2022-10-24T03:18:51.932Z,26.67
2022-10-24T03:19:04.583Z,26.08
2022-10-24T03:19:18.128Z,25.90
2022-10-24T03:19:30.634Z,26.30
2022-10-24T03:19:45.157Z,26.05
2022-10-24T03:19:58.907Z,26.33
2022-10-24T03:20:11.818Z,26.45
2022-10-24T03:20:24.854Z,26.65
2022-10-24T03:20:37.541Z,26.08
2022-10-24T03:20:50.132Z,26.02
2022-10-24T03:21:02.716Z,26.20
2022-10-24T03:21:16.288Z,26.50
2022-10-24T03:21:28.931Z,26.15
2022-10-24T03:21:42.208Z,26.17
2022-10-24T03:21:54.857Z,26.15
2022-10-24T03:22:07.397Z,26.08
2022-10-24T03:22:19.976Z,25.75
2022-10-24T03:22:32.576Z,26.48
2022-10-24T03:22:46.168Z,26.35
2022-10-24T03:22:58.749Z,25.70
2022-10-24T03:23:11.366Z,25.90